sensor_id;sensor_type;location;lat;lon;timestamp;pressure;altitude;pressure_sealevel;temperature;humidity
31775;BME280;66189;49.000;11.640;2023-02-28T00:01:55;96612.84;;;-4.06;75.78
31775;BME280;66189;49.000;11.640;2023-02-28T00:03:55;96604.47;;;-4.03;75.66
31775;BME280;66189;49.000;11.640;2023-02-28T00:05:56;96605.69;;;-4.11;76.13
31775;BME280;66189;49.000;11.640;2023-02-28T00:07:56;96599.41;;;-4.09;76.17
31775;BME280;66189;49.000;11.640;2023-02-28T00:09:57;96603.06;;;-4.11;76.64
31775;BME280;66189;49.000;11.640;2023-02-28T00:11:57;96602.53;;;-4.13;76.16
31775;BME280;66189;49.000;11.640;2023-02-28T00:13:58;96594.16;;;-4.09;76.29
31775;BME280;66189;49.000;11.640;2023-02-28T00:16:01;96597.31;;;-4.07;76.32
31775;BME280;66189;49.000;11.640;2023-02-28T00:18:02;96597.03;;;-4.11;76.27
31775;BME280;66189;49.000;11.640;2023-02-28T00:20:03;96593.31;;;-4.15;76.02
31775;BME280;66189;49.000;11.640;2023-02-28T00:22:11;96596.22;;;-4.12;75.88
31775;BME280;66189;49.000;11.640;2023-02-28T00:24:14;96595.88;;;-4.20;76.75
31775;BME280;66189;49.000;11.640;2023-02-28T00:26:14;96601.31;;;-4.27;76.94
31775;BME280;66189;49.000;11.640;2023-02-28T00:28:18;96591.66;;;-4.21;76.84
31775;BME280;66189;49.000;11.640;2023-02-28T00:30:20;96596.44;;;-4.18;76.45
31775;BME280;66189;49.000;11.640;2023-02-28T00:32:21;96597.13;;;-4.28;75.86
31775;BME280;66189;49.000;11.640;2023-02-28T00:34:21;96588.66;;;-4.30;76.33
31775;BME280;66189;49.000;11.640;2023-02-28T00:36:22;96593.38;;;-4.32;76.17
31775;BME280;66189;49.000;11.640;2023-02-28T00:38:22;96585.81;;;-4.29;76.56
31775;BME280;66189;49.000;11.640;2023-02-28T00:40:22;96589.25;;;-4.28;76.52
31775;BME280;66189;49.000;11.640;2023-02-28T00:42:23;96583.91;;;-4.33;76.93
31775;BME280;66189;49.000;11.640;2023-02-28T00:44:26;96582.88;;;-4.32;76.56
31775;BME280;66189;49.000;11.640;2023-02-28T00:46:26;96582.63;;;-4.31;76.55
31775;BME280;66189;49.000;11.640;2023-02-28T00:48:27;96579.28;;;-4.26;76.10
31775;BME280;66189;49.000;11.640;2023-02-28T00:50:27;96578.72;;;-4.28;76.21
31775;BME280;66189;49.000;11.640;2023-02-28T00:52:28;96577.63;;;-4.32;76.53
31775;BME280;66189;49.000;11.640;2023-02-28T00:54:28;96581.78;;;-4.36;76.99
31775;BME280;66189;49.000;11.640;2023-02-28T00:56:29;96582.88;;;-4.32;76.59
31775;BME280;66189;49.000;11.640;2023-02-28T00:58:29;96577.00;;;-4.39;77.00
31775;BME280;66189;49.000;11.640;2023-02-28T01:00:31;96576.78;;;-4.38;77.23
31775;BME280;66189;49.000;11.640;2023-02-28T01:02:31;96576.84;;;-4.33;76.69
31775;BME280;66189;49.000;11.640;2023-02-28T01:04:31;96567.63;;;-4.35;77.13
31775;BME280;66189;49.000;11.640;2023-02-28T01:06:35;96569.91;;;-4.39;77.11
31775;BME280;66189;49.000;11.640;2023-02-28T01:08:36;96565.47;;;-4.38;77.32
31775;BME280;66189;49.000;11.640;2023-02-28T01:10:36;96570.16;;;-4.40;77.40
31775;BME280;66189;49.000;11.640;2023-02-28T01:12:36;96569.13;;;-4.39;77.37
31775;BME280;66189;49.000;11.640;2023-02-28T01:14:37;96562.28;;;-4.40;77.39
31775;BME280;66189;49.000;11.640;2023-02-28T01:16:37;96566.47;;;-4.44;77.10
31775;BME280;66189;49.000;11.640;2023-02-28T01:18:38;96563.28;;;-4.47;77.78
31775;BME280;66189;49.000;11.640;2023-02-28T01:20:39;96563.28;;;-4.47;77.49
31775;BME280;66189;49.000;11.640;2023-02-28T01:22:39;96562.19;;;-4.51;77.39
31775;BME280;66189;49.000;11.640;2023-02-28T01:24:41;96567.75;;;-4.47;77.17
31775;BME280;66189;49.000;11.640;2023-02-28T01:26:41;96565.34;;;-4.49;77.59
31775;BME280;66189;49.000;11.640;2023-02-28T01:28:42;96563.22;;;-4.52;77.63
31775;BME280;66189;49.000;11.640;2023-02-28T01:30:42;96568.72;;;-4.53;77.50
31775;BME280;66189;49.000;11.640;2023-02-28T01:32:43;96565.06;;;-4.52;77.59
31775;BME280;66189;49.000;11.640;2023-02-28T01:34:43;96565.31;;;-4.54;77.47
31775;BME280;66189;49.000;11.640;2023-02-28T01:36:43;96563.28;;;-4.47;77.21
31775;BME280;66189;49.000;11.640;2023-02-28T01:38:44;96560.59;;;-4.52;77.24
31775;BME280;66189;49.000;11.640;2023-02-28T01:40:45;96562.38;;;-4.57;77.51
31775;BME280;66189;49.000;11.640;2023-02-28T01:42:45;96561.63;;;-4.53;77.93
31775;BME280;66189;49.000;11.640;2023-02-28T01:46:55;96556.09;;;-4.56;77.40
31775;BME280;66189;49.000;11.640;2023-02-28T01:49:00;96566.06;;;-4.58;77.35
31775;BME280;66189;49.000;11.640;2023-02-28T01:51:03;96553.66;;;-4.63;77.71
31775;BME280;66189;49.000;11.640;2023-02-28T01:53:06;96555.19;;;-4.67;77.93
31775;BME280;66189;49.000;11.640;2023-02-28T01:55:07;96543.94;;;-4.62;77.97
31775;BME280;66189;49.000;11.640;2023-02-28T01:57:11;96552.09;;;-4.59;77.44
31775;BME280;66189;49.000;11.640;2023-02-28T01:59:14;96547.59;;;-4.64;77.92
31775;BME280;66189;49.000;11.640;2023-02-28T02:01:20;96551.03;;;-4.63;77.90
31775;BME280;66189;49.000;11.640;2023-02-28T02:03:23;96547.06;;;-4.66;77.79
31775;BME280;66189;49.000;11.640;2023-02-28T02:05:25;96549.44;;;-4.64;77.42
31775;BME280;66189;49.000;11.640;2023-02-28T02:07:26;96550.72;;;-4.67;77.95
31775;BME280;66189;49.000;11.640;2023-02-28T02:09:29;96549.34;;;-4.69;77.85
31775;BME280;66189;49.000;11.640;2023-02-28T02:11:30;96547.06;;;-4.66;77.68
31775;BME280;66189;49.000;11.640;2023-02-28T02:13:37;96550.94;;;-4.68;77.83
31775;BME280;66189;49.000;11.640;2023-02-28T02:15:43;96545.16;;;-4.70;77.79
31775;BME280;66189;49.000;11.640;2023-02-28T02:17:48;96544.34;;;-4.71;78.12
31775;BME280;66189;49.000;11.640;2023-02-28T02:26:28;96552.06;;;-4.64;77.96
31775;BME280;66189;49.000;11.640;2023-02-28T02:29:16;96541.69;;;-4.76;78.31
31775;BME280;66189;49.000;11.640;2023-02-28T02:37:57;96542.16;;;-4.79;78.36
31775;BME280;66189;49.000;11.640;2023-02-28T02:40:04;96543.94;;;-4.85;78.26
31775;BME280;66189;49.000;11.640;2023-02-28T02:42:13;96540.91;;;-4.76;78.40
31775;BME280;66189;49.000;11.640;2023-02-28T02:46:29;96553.94;;;-4.82;78.46
31775;BME280;66189;49.000;11.640;2023-02-28T02:48:33;96549.25;;;-4.79;78.36
31775;BME280;66189;49.000;11.640;2023-02-28T02:50:36;96540.53;;;-4.85;78.51
31775;BME280;66189;49.000;11.640;2023-02-28T02:52:39;96542.13;;;-4.84;78.54
31775;BME280;66189;49.000;11.640;2023-02-28T02:54:41;96539.25;;;-4.83;78.39
31775;BME280;66189;49.000;11.640;2023-02-28T02:56:44;96537.13;;;-4.86;78.61
31775;BME280;66189;49.000;11.640;2023-02-28T02:58:45;96540.53;;;-4.85;78.56
31775;BME280;66189;49.000;11.640;2023-02-28T03:00:48;96546.06;;;-4.82;78.22
31775;BME280;66189;49.000;11.640;2023-02-28T03:02:51;96545.91;;;-4.75;77.83
31775;BME280;66189;49.000;11.640;2023-02-28T03:04:53;96546.38;;;-4.78;77.77
31775;BME280;66189;49.000;11.640;2023-02-28T03:07:01;96539.25;;;-4.83;78.30
31775;BME280;66189;49.000;11.640;2023-02-28T03:09:01;96542.38;;;-4.86;78.28
31775;BME280;66189;49.000;11.640;2023-02-28T03:11:03;96545.47;;;-4.89;78.48
31775;BME280;66189;49.000;11.640;2023-02-28T03:13:12;96539.78;;;-4.80;78.36
31775;BME280;66189;49.000;11.640;2023-02-28T03:15:19;96546.25;;;-4.88;78.39
31775;BME280;66189;49.000;11.640;2023-02-28T03:21:58;96536.88;;;-4.84;78.33
31775;BME280;66189;49.000;11.640;2023-02-28T03:24:11;96541.00;;;-4.88;78.62
31775;BME280;66189;49.000;11.640;2023-02-28T03:26:19;96540.22;;;-4.89;78.45
31775;BME280;66189;49.000;11.640;2023-02-28T03:32:28;96541.50;;;-4.91;78.42
31775;BME280;66189;49.000;11.640;2023-02-28T03:34:35;96541.19;;;-4.95;78.56
31775;BME280;66189;49.000;11.640;2023-02-28T03:36:37;96542.63;;;-5.04;79.27
31775;BME280;66189;49.000;11.640;2023-02-28T03:40:46;96536.66;;;-5.00;79.19
31775;BME280;66189;49.000;11.640;2023-02-28T03:42:49;96542.22;;;-4.96;79.04
31775;BME280;66189;49.000;11.640;2023-02-28T03:45:00;96542.16;;;-5.01;79.01
31775;BME280;66189;49.000;11.640;2023-02-28T03:47:03;96548.75;;;-4.98;79.26
31775;BME280;66189;49.000;11.640;2023-02-28T03:49:07;96536.41;;;-4.98;79.37
31775;BME280;66189;49.000;11.640;2023-02-28T03:51:13;96546.44;;;-4.95;78.63
31775;BME280;66189;49.000;11.640;2023-02-28T03:55:21;96544.03;;;-4.96;79.11
31775;BME280;66189;49.000;11.640;2023-02-28T03:57:37;96546.91;;;-4.98;79.35
31775;BME280;66189;49.000;11.640;2023-02-28T03:59:41;96539.03;;;-4.98;79.18
31775;BME280;66189;49.000;11.640;2023-02-28T04:01:44;96543.25;;;-4.97;78.68
31775;BME280;66189;49.000;11.640;2023-02-28T04:03:45;96552.16;;;-4.98;78.99
31775;BME280;66189;49.000;11.640;2023-02-28T04:05:52;96554.53;;;-4.96;79.26
31775;BME280;66189;49.000;11.640;2023-02-28T04:07:55;96551.06;;;-5.02;79.29
31775;BME280;66189;49.000;11.640;2023-02-28T04:10:03;96549.00;;;-5.00;79.49
31775;BME280;66189;49.000;11.640;2023-02-28T04:12:04;96549.78;;;-5.00;78.95
31775;BME280;66189;49.000;11.640;2023-02-28T04:14:05;96548.94;;;-5.05;79.24
31775;BME280;66189;49.000;11.640;2023-02-28T04:16:06;96556.81;;;-5.05;79.37
31775;BME280;66189;49.000;11.640;2023-02-28T04:18:12;96554.25;;;-5.00;79.05
31775;BME280;66189;49.000;11.640;2023-02-28T04:20:12;96564.50;;;-4.98;79.13
31775;BME280;66189;49.000;11.640;2023-02-28T04:22:12;96558.69;;;-5.01;78.81
31775;BME280;66189;49.000;11.640;2023-02-28T04:24:14;96559.25;;;-4.98;78.85
31775;BME280;66189;49.000;11.640;2023-02-28T04:26:16;96560.03;;;-4.98;79.22
31775;BME280;66189;49.000;11.640;2023-02-28T04:28:16;96555.75;;;-5.04;79.44
31775;BME280;66189;49.000;11.640;2023-02-28T04:30:16;96556.38;;;-4.97;79.13
31775;BME280;66189;49.000;11.640;2023-02-28T04:32:17;96556.63;;;-4.98;78.97
31775;BME280;66189;49.000;11.640;2023-02-28T04:34:17;96549.47;;;-5.03;79.16
31775;BME280;66189;49.000;11.640;2023-02-28T04:36:19;96545.34;;;-4.99;78.98
31775;BME280;66189;49.000;11.640;2023-02-28T04:38:19;96552.63;;;-5.01;79.10
31775;BME280;66189;49.000;11.640;2023-02-28T04:40:19;96551.63;;;-5.00;78.92
31775;BME280;66189;49.000;11.640;2023-02-28T04:42:20;96552.63;;;-5.01;78.71
31775;BME280;66189;49.000;11.640;2023-02-28T04:44:20;96555.84;;;-4.99;78.99
31775;BME280;66189;49.000;11.640;2023-02-28T04:46:21;96553.22;;;-4.99;79.47
31775;BME280;66189;49.000;11.640;2023-02-28T04:48:25;96557.16;;;-4.96;78.96
31775;BME280;66189;49.000;11.640;2023-02-28T04:50:25;96553.25;;;-4.94;79.00
31775;BME280;66189;49.000;11.640;2023-02-28T04:52:27;96554.00;;;-4.98;78.84
31775;BME280;66189;49.000;11.640;2023-02-28T04:54:27;96565.59;;;-4.94;78.66
31775;BME280;66189;49.000;11.640;2023-02-28T04:56:28;96557.41;;;-4.98;78.51
31775;BME280;66189;49.000;11.640;2023-02-28T04:58:28;96554.06;;;-4.93;78.21
31775;BME280;66189;49.000;11.640;2023-02-28T05:00:29;96559.00;;;-4.97;78.83
31775;BME280;66189;49.000;11.640;2023-02-28T05:02:30;96565.34;;;-4.93;78.36
31775;BME280;66189;49.000;11.640;2023-02-28T05:04:30;96566.56;;;-5.01;78.78
31775;BME280;66189;49.000;11.640;2023-02-28T05:06:34;96565.47;;;-5.05;79.34
31775;BME280;66189;49.000;11.640;2023-02-28T05:08:34;96575.41;;;-5.07;79.26
31775;BME280;66189;49.000;11.640;2023-02-28T05:10:34;96568.81;;;-5.09;79.17
31775;BME280;66189;49.000;11.640;2023-02-28T05:12:35;96572.41;;;-5.15;79.61
31775;BME280;66189;49.000;11.640;2023-02-28T05:14:35;96566.81;;;-5.02;79.11
31775;BME280;66189;49.000;11.640;2023-02-28T05:16:36;96569.44;;;-5.02;78.97
31775;BME280;66189;49.000;11.640;2023-02-28T05:18:37;96563.81;;;-5.11;79.13
31775;BME280;66189;49.000;11.640;2023-02-28T05:20:37;96567.44;;;-5.12;79.17
31775;BME280;66189;49.000;11.640;2023-02-28T05:22:37;96568.75;;;-5.14;79.62
31775;BME280;66189;49.000;11.640;2023-02-28T05:24:38;96561.91;;;-5.15;79.58
31775;BME280;66189;49.000;11.640;2023-02-28T05:26:42;96567.16;;;-5.15;79.87
31775;BME280;66189;49.000;11.640;2023-02-28T05:28:42;96558.50;;;-5.16;79.63
31775;BME280;66189;49.000;11.640;2023-02-28T05:30:43;96561.84;;;-5.21;79.93
31775;BME280;66189;49.000;11.640;2023-02-28T05:32:43;96565.31;;;-5.15;79.70
31775;BME280;66189;49.000;11.640;2023-02-28T05:34:43;96563.97;;;-5.18;79.77
31775;BME280;66189;49.000;11.640;2023-02-28T05:36:44;96569.59;;;-5.09;79.66
31775;BME280;66189;49.000;11.640;2023-02-28T05:38:46;96564.78;;;-5.17;79.51
31775;BME280;66189;49.000;11.640;2023-02-28T05:40:46;96567.94;;;-5.15;79.49
31775;BME280;66189;49.000;11.640;2023-02-28T05:42:46;96559.28;;;-5.15;79.57
31775;BME280;66189;49.000;11.640;2023-02-28T05:44:47;96565.88;;;-5.13;79.45
31775;BME280;66189;49.000;11.640;2023-02-28T05:46:47;96569.84;;;-5.10;79.33
31775;BME280;66189;49.000;11.640;2023-02-28T05:48:47;96572.16;;;-5.14;79.54
31775;BME280;66189;49.000;11.640;2023-02-28T05:50:48;96572.09;;;-5.19;79.61
31775;BME280;66189;49.000;11.640;2023-02-28T05:52:49;96572.94;;;-5.13;79.36
31775;BME280;66189;49.000;11.640;2023-02-28T05:54:50;96577.16;;;-5.12;78.94
31775;BME280;66189;49.000;11.640;2023-02-28T05:56:50;96575.09;;;-5.10;79.07
31775;BME280;66189;49.000;11.640;2023-02-28T05:58:50;96587.72;;;-5.07;78.92
31775;BME280;66189;49.000;11.640;2023-02-28T06:00:51;96585.56;;;-5.10;79.17
31775;BME280;66189;49.000;11.640;2023-02-28T06:02:51;96581.38;;;-5.11;79.10
31775;BME280;66189;49.000;11.640;2023-02-28T06:04:56;96585.19;;;-5.02;78.86
31775;BME280;66189;49.000;11.640;2023-02-28T06:06:56;96586.50;;;-5.00;78.71
31775;BME280;66189;49.000;11.640;2023-02-28T06:08:57;96590.97;;;-5.00;78.47
31775;BME280;66189;49.000;11.640;2023-02-28T06:10:58;96590.91;;;-5.05;78.75
31775;BME280;66189;49.000;11.640;2023-02-28T06:13:02;96585.41;;;-5.04;78.76
31775;BME280;66189;49.000;11.640;2023-02-28T06:15:03;96589.56;;;-5.08;78.93
31775;BME280;66189;49.000;11.640;2023-02-28T06:17:03;96587.72;;;-5.07;78.83
31775;BME280;66189;49.000;11.640;2023-02-28T06:19:04;96591.69;;;-5.05;78.65
31775;BME280;66189;49.000;11.640;2023-02-28T06:21:04;96595.09;;;-5.04;78.79
31775;BME280;66189;49.000;11.640;2023-02-28T06:23:04;96592.81;;;-5.01;78.63
31775;BME280;66189;49.000;11.640;2023-02-28T06:25:05;96598.28;;;-5.02;78.50
31775;BME280;66189;49.000;11.640;2023-02-28T06:27:05;96596.50;;;-4.96;78.56
31775;BME280;66189;49.000;11.640;2023-02-28T06:29:06;96598.44;;;-4.92;78.22
31775;BME280;66189;49.000;11.640;2023-02-28T06:31:08;96593.19;;;-4.92;78.08
31775;BME280;66189;49.000;11.640;2023-02-28T06:33:08;96603.22;;;-4.89;78.31
31775;BME280;66189;49.000;11.640;2023-02-28T06:35:09;96585.91;;;-4.85;77.69
31775;BME280;66189;49.000;11.640;2023-02-28T06:37:10;96594.66;;;-4.79;77.59
31775;BME280;66189;49.000;11.640;2023-02-28T06:39:10;96594.72;;;-4.74;77.37
31775;BME280;66189;49.000;11.640;2023-02-28T06:41:10;96609.19;;;-4.71;76.85
31775;BME280;66189;49.000;11.640;2023-02-28T06:43:10;96608.22;;;-4.65;77.14
31775;BME280;66189;49.000;11.640;2023-02-28T06:45:13;96600.66;;;-4.61;76.85
31775;BME280;66189;49.000;11.640;2023-02-28T06:47:13;96606.75;;;-4.56;76.57
31775;BME280;66189;49.000;11.640;2023-02-28T06:49:14;96613.13;;;-4.52;76.29
31775;BME280;66189;49.000;11.640;2023-02-28T06:51:16;96610.25;;;-4.50;76.46
31775;BME280;66189;49.000;11.640;2023-02-28T06:53:16;96607.44;;;-4.43;75.97
31775;BME280;66189;49.000;11.640;2023-02-28T06:55:17;96610.91;;;-4.38;75.49
31775;BME280;66189;49.000;11.640;2023-02-28T06:57:18;96614.16;;;-4.31;75.49
31775;BME280;66189;49.000;11.640;2023-02-28T06:59:18;96610.25;;;-4.28;74.91
31775;BME280;66189;49.000;11.640;2023-02-28T07:01:18;96616.66;;;-4.19;74.29
31775;BME280;66189;49.000;11.640;2023-02-28T07:03:19;96616.41;;;-4.17;74.41
31775;BME280;66189;49.000;11.640;2023-02-28T07:05:19;96622.00;;;-4.08;73.77
31775;BME280;66189;49.000;11.640;2023-02-28T07:07:20;96620.47;;;-4.04;73.43
31775;BME280;66189;49.000;11.640;2023-02-28T07:09:20;96621.34;;;-3.99;72.84
31775;BME280;66189;49.000;11.640;2023-02-28T07:11:21;96621.69;;;-3.90;73.00
31775;BME280;66189;49.000;11.640;2023-02-28T07:13:22;96612.31;;;-3.81;71.88
31775;BME280;66189;49.000;11.640;2023-02-28T07:15:25;96617.31;;;-3.79;71.83
31775;BME280;66189;49.000;11.640;2023-02-28T07:17:25;96617.34;;;-3.74;71.37
31775;BME280;66189;49.000;11.640;2023-02-28T07:19:26;96616.69;;;-3.64;70.96
31775;BME280;66189;49.000;11.640;2023-02-28T07:21:26;96612.72;;;-3.62;71.58
31775;BME280;66189;49.000;11.640;2023-02-28T07:23:26;96616.50;;;-3.52;70.17
31775;BME280;66189;49.000;11.640;2023-02-28T07:25:27;96612.53;;;-3.55;69.85
31775;BME280;66189;49.000;11.640;2023-02-28T07:27:28;96616.25;;;-3.51;69.87
31775;BME280;66189;49.000;11.640;2023-02-28T07:29:29;96621.66;;;-3.35;69.18
31775;BME280;66189;49.000;11.640;2023-02-28T07:31:29;96614.06;;;-3.27;69.05
31775;BME280;66189;49.000;11.640;2023-02-28T07:33:29;96617.56;;;-3.16;68.39
31775;BME280;66189;49.000;11.640;2023-02-28T07:35:30;96619.75;;;-3.08;69.02
31775;BME280;66189;49.000;11.640;2023-02-28T07:37:30;96621.63;;;-3.03;68.17
31775;BME280;66189;49.000;11.640;2023-02-28T07:39:36;96626.88;;;-3.03;68.00
31775;BME280;66189;49.000;11.640;2023-02-28T07:41:36;96624.53;;;-2.99;67.87
31775;BME280;66189;49.000;11.640;2023-02-28T07:43:43;96620.38;;;-2.90;68.06
31775;BME280;66189;49.000;11.640;2023-02-28T07:45:44;96624.91;;;-2.80;67.55
31775;BME280;66189;49.000;11.640;2023-02-28T07:47:44;96626.78;;;-2.71;67.22
31775;BME280;66189;49.000;11.640;2023-02-28T07:49:45;96630.78;;;-2.63;67.22
31775;BME280;66189;49.000;11.640;2023-02-28T07:51:46;96621.09;;;-2.57;67.02
31775;BME280;66189;49.000;11.640;2023-02-28T07:53:46;96630.56;;;-2.56;66.62
31775;BME280;66189;49.000;11.640;2023-02-28T07:55:46;96632.75;;;-2.43;66.39
31775;BME280;66189;49.000;11.640;2023-02-28T07:57:47;96630.66;;;-2.41;65.67
31775;BME280;66189;49.000;11.640;2023-02-28T07:59:47;96633.28;;;-2.36;65.61
31775;BME280;66189;49.000;11.640;2023-02-28T08:01:47;96627.75;;;-2.34;65.84
31775;BME280;66189;49.000;11.640;2023-02-28T08:03:50;96633.38;;;-2.10;65.29
31775;BME280;66189;49.000;11.640;2023-02-28T08:05:50;96633.38;;;-2.10;65.79
31775;BME280;66189;49.000;11.640;2023-02-28T08:07:52;96640.25;;;-2.04;65.10
31775;BME280;66189;49.000;11.640;2023-02-28T08:09:53;96641.38;;;-1.89;64.73
31775;BME280;66189;49.000;11.640;2023-02-28T08:11:53;96643.47;;;-1.91;64.65
31775;BME280;66189;49.000;11.640;2023-02-28T08:13:54;96646.41;;;-1.72;64.66
31775;BME280;66189;49.000;11.640;2023-02-28T08:15:55;96645.41;;;-1.56;64.73
31775;BME280;66189;49.000;11.640;2023-02-28T08:17:56;96645.69;;;-1.47;64.20
31775;BME280;66189;49.000;11.640;2023-02-28T08:19:56;96648.56;;;-1.38;63.45
31775;BME280;66189;49.000;11.640;2023-02-28T08:21:56;96645.66;;;-1.42;63.90
31775;BME280;66189;49.000;11.640;2023-02-28T08:23:57;96648.81;;;-1.40;63.51
31775;BME280;66189;49.000;11.640;2023-02-28T08:25:57;96652.53;;;-1.36;62.67
31775;BME280;66189;49.000;11.640;2023-02-28T08:27:57;96651.75;;;-1.21;62.55
31775;BME280;66189;49.000;11.640;2023-02-28T08:29:58;96655.72;;;-1.18;62.72
31775;BME280;66189;49.000;11.640;2023-02-28T08:31:58;96656.50;;;-0.92;63.37
31775;BME280;66189;49.000;11.640;2023-02-28T08:33:58;96655.69;;;-0.82;62.20
31775;BME280;66189;49.000;11.640;2023-02-28T08:35:59;96660.44;;;-0.69;61.08
31775;BME280;66189;49.000;11.640;2023-02-28T08:37:59;96661.47;;;-0.55;61.78
31775;BME280;66189;49.000;11.640;2023-02-28T08:40:00;96650.59;;;-0.38;61.68
31775;BME280;66189;49.000;11.640;2023-02-28T08:42:00;96658.28;;;-0.51;60.76
31775;BME280;66189;49.000;11.640;2023-02-28T08:44:00;96655.09;;;-0.43;60.81
31775;BME280;66189;49.000;11.640;2023-02-28T08:46:01;96664.81;;;-0.33;60.39
31775;BME280;66189;49.000;11.640;2023-02-28T08:48:02;96662.19;;;-0.33;59.07
31775;BME280;66189;49.000;11.640;2023-02-28T08:50:03;96667.66;;;-0.09;60.44
31775;BME280;66189;49.000;11.640;2023-02-28T08:52:03;96663.41;;;-0.05;60.20
31775;BME280;66189;49.000;11.640;2023-02-28T08:54:04;96672.91;;;0.01;60.12
31775;BME280;66189;49.000;11.640;2023-02-28T08:56:11;96670.59;;;0.44;60.01
31775;BME280;66189;49.000;11.640;2023-02-28T08:58:12;96666.13;;;0.34;58.90
31775;BME280;66189;49.000;11.640;2023-02-28T09:00:12;96662.13;;;0.42;58.42
31775;BME280;66189;49.000;11.640;2023-02-28T09:02:13;96660.44;;;0.57;58.34
31775;BME280;66189;49.000;11.640;2023-02-28T09:04:14;96666.41;;;0.73;57.49
31775;BME280;66189;49.000;11.640;2023-02-28T09:06:15;96669.34;;;0.71;57.64
31775;BME280;66189;49.000;11.640;2023-02-28T09:08:15;96663.91;;;0.92;57.78
31775;BME280;66189;49.000;11.640;2023-02-28T09:10:16;96664.53;;;0.78;57.96
31775;BME280;66189;49.000;11.640;2023-02-28T09:12:16;96667.72;;;0.75;57.36
31775;BME280;66189;49.000;11.640;2023-02-28T09:14:16;96651.78;;;0.85;55.80
31775;BME280;66189;49.000;11.640;2023-02-28T09:16:17;96659.66;;;0.96;56.51
31775;BME280;66189;49.000;11.640;2023-02-28T09:18:18;96655.03;;;1.06;56.33
31775;BME280;66189;49.000;11.640;2023-02-28T09:20:18;96666.38;;;1.12;55.92
31775;BME280;66189;49.000;11.640;2023-02-28T09:24:27;96655.78;;;1.41;54.44
31775;BME280;66189;49.000;11.640;2023-02-28T09:26:28;96662.66;;;1.42;54.98
31775;BME280;66189;49.000;11.640;2023-02-28T09:28:28;96656.09;;;1.64;53.96
31775;BME280;66189;49.000;11.640;2023-02-28T09:30:30;96659.59;;;1.30;53.56
31775;BME280;66189;49.000;11.640;2023-02-28T09:32:30;96664.16;;;1.24;54.51
31775;BME280;66189;49.000;11.640;2023-02-28T09:34:31;96663.34;;;1.53;53.42
31775;BME280;66189;49.000;11.640;2023-02-28T09:36:31;96662.91;;;1.46;53.31
31775;BME280;66189;49.000;11.640;2023-02-28T09:38:33;96660.53;;;1.69;52.81
31775;BME280;66189;49.000;11.640;2023-02-28T09:40:42;96659.31;;;1.61;52.58
31775;BME280;66189;49.000;11.640;2023-02-28T09:42:47;96666.06;;;1.48;53.73
31775;BME280;66189;49.000;11.640;2023-02-28T09:44:48;96669.22;;;1.74;51.84
31775;BME280;66189;49.000;11.640;2023-02-28T09:46:54;96673.34;;;2.10;50.71
31775;BME280;66189;49.000;11.640;2023-02-28T09:48:58;96674.81;;;1.97;52.00
31775;BME280;66189;49.000;11.640;2023-02-28T09:51:11;96670.06;;;1.94;51.53
31775;BME280;66189;49.000;11.640;2023-02-28T09:55:38;96667.75;;;2.30;51.62
31775;BME280;66189;49.000;11.640;2023-02-28T09:57:40;96662.22;;;2.46;51.48
31775;BME280;66189;49.000;11.640;2023-02-28T10:06:34;96680.84;;;3.17;50.06
31775;BME280;66189;49.000;11.640;2023-02-28T10:11:00;96668.47;;;2.93;49.49
31775;BME280;66189;49.000;11.640;2023-02-28T10:13:05;96678.41;;;3.20;48.30
31775;BME280;66189;49.000;11.640;2023-02-28T10:15:13;96681.66;;;3.17;49.67
31775;BME280;66189;49.000;11.640;2023-02-28T10:17:21;96683.28;;;3.46;48.74
31775;BME280;66189;49.000;11.640;2023-02-28T10:21:57;96672.97;;;3.86;47.95
31775;BME280;66189;49.000;11.640;2023-02-28T10:24:16;96673.16;;;3.62;47.87
31775;BME280;66189;49.000;11.640;2023-02-28T10:26:19;96669.34;;;3.35;49.54
31775;BME280;66189;49.000;11.640;2023-02-28T10:28:19;96675.97;;;3.38;48.40
31775;BME280;66189;49.000;11.640;2023-02-28T10:30:20;96673.38;;;3.19;47.72
31775;BME280;66189;49.000;11.640;2023-02-28T10:32:25;96685.19;;;2.75;49.00
31775;BME280;66189;49.000;11.640;2023-02-28T10:34:29;96674.22;;;2.62;48.07
31775;BME280;66189;49.000;11.640;2023-02-28T10:36:29;96682.75;;;2.59;50.55
31775;BME280;66189;49.000;11.640;2023-02-28T10:38:37;96677.41;;;2.97;50.55
31775;BME280;66189;49.000;11.640;2023-02-28T10:40:38;96677.00;;;3.70;50.32
31775;BME280;66189;49.000;11.640;2023-02-28T10:42:38;96680.94;;;3.12;50.31
31775;BME280;66189;49.000;11.640;2023-02-28T10:44:39;96681.66;;;2.98;49.36
31775;BME280;66189;49.000;11.640;2023-02-28T10:46:40;96679.88;;;2.75;49.38
31775;BME280;66189;49.000;11.640;2023-02-28T10:48:43;96687.16;;;2.31;50.67
31775;BME280;66189;49.000;11.640;2023-02-28T10:52:53;96684.84;;;2.62;50.29
31775;BME280;66189;49.000;11.640;2023-02-28T10:55:14;96677.88;;;2.47;48.40
31775;BME280;66189;49.000;11.640;2023-02-28T10:57:19;96682.91;;;3.20;49.59
31775;BME280;66189;49.000;11.640;2023-02-28T10:59:30;96686.28;;;2.74;50.07
31775;BME280;66189;49.000;11.640;2023-02-28T11:01:41;96685.09;;;2.99;49.54
31775;BME280;66189;49.000;11.640;2023-02-28T11:03:42;96683.13;;;2.72;50.05
31775;BME280;66189;49.000;11.640;2023-02-28T11:05:43;96685.53;;;3.06;50.38
31775;BME280;66189;49.000;11.640;2023-02-28T11:07:51;96678.78;;;4.16;48.81
31775;BME280;66189;49.000;11.640;2023-02-28T11:09:55;96681.31;;;3.52;49.42
31775;BME280;66189;49.000;11.640;2023-02-28T11:11:56;96679.16;;;4.09;48.78
31775;BME280;66189;49.000;11.640;2023-02-28T11:14:05;96684.78;;;4.08;46.99
31775;BME280;66189;49.000;11.640;2023-02-28T11:16:08;96688.34;;;4.03;47.80
31775;BME280;66189;49.000;11.640;2023-02-28T11:20:20;96683.00;;;3.62;49.14
31775;BME280;66189;49.000;11.640;2023-02-28T11:22:27;96685.38;;;3.49;49.90
31775;BME280;66189;49.000;11.640;2023-02-28T11:24:33;96688.03;;;3.63;48.17
31775;BME280;66189;49.000;11.640;2023-02-28T11:26:36;96686.44;;;3.48;47.90
31775;BME280;66189;49.000;11.640;2023-02-28T11:28:40;96689.88;;;3.49;47.91
31775;BME280;66189;49.000;11.640;2023-02-28T11:30:41;96686.69;;;3.80;49.01
31775;BME280;66189;49.000;11.640;2023-02-28T11:32:48;96684.09;;;3.61;48.67